createdAt,value
2023-04-19T00:00:36.313Z,95314.00
2023-04-19T00:01:36.377Z,95314.00
2023-04-19T00:02:36.546Z,95316.00
2023-04-19T00:03:36.702Z,95312.00
2023-04-19T00:04:36.556Z,95316.00
2023-04-19T00:05:36.557Z,95314.00
2023-04-19T00:06:36.636Z,95312.00
2023-04-19T00:07:36.727Z,95314.00
2023-04-19T00:08:36.710Z,95312.00
2023-04-19T00:09:36.798Z,95312.00
2023-04-19T00:10:36.844Z,95312.00
2023-04-19T00:11:36.891Z,95312.00
2023-04-19T00:12:36.933Z,95310.00
2023-04-19T00:13:36.996Z,95312.00
2023-04-19T00:14:37.043Z,95310.00
2023-04-19T00:15:37.114Z,95310.00
2023-04-19T00:16:37.185Z,95310.00
2023-04-19T00:17:37.230Z,95308.00
2023-04-19T00:18:37.247Z,95310.00
2023-04-19T00:19:37.333Z,95308.00
2023-04-19T00:20:37.366Z,95308.00
2023-04-19T00:21:37.424Z,95310.00
2023-04-19T00:22:37.503Z,95310.00
2023-04-19T00:23:37.513Z,95310.00
2023-04-19T00:24:37.582Z,95310.00
2023-04-19T00:25:37.649Z,95312.00
2023-04-19T00:26:37.696Z,95310.00
2023-04-19T00:27:37.740Z,95312.00
2023-04-19T00:28:37.823Z,95312.00
2023-04-19T00:29:37.880Z,95312.00
2023-04-19T00:30:37.948Z,95312.00
2023-04-19T00:31:37.997Z,95308.00
2023-04-19T00:32:38.091Z,95308.00
2023-04-19T00:33:38.113Z,95308.00
2023-04-19T00:34:38.157Z,95308.00
2023-04-19T00:35:38.249Z,95308.00
2023-04-19T00:36:38.314Z,95308.00
2023-04-19T00:37:38.347Z,95308.00
2023-04-19T00:38:38.422Z,95308.00
2023-04-19T00:39:38.470Z,95306.00
2023-04-19T00:40:38.549Z,95306.00
2023-04-19T00:41:38.589Z,95308.00
2023-04-19T00:42:38.653Z,95305.00
2023-04-19T00:43:38.725Z,95308.00
2023-04-19T00:44:38.767Z,95305.00
2023-04-19T00:45:38.847Z,95305.00
2023-04-19T00:46:39.016Z,95303.00
2023-04-19T00:47:38.984Z,95306.00
2023-04-19T00:48:38.989Z,95301.00
2023-04-19T00:49:39.052Z,95306.00
2023-04-19T00:50:39.116Z,95305.00
2023-04-19T00:51:39.168Z,95305.00
2023-04-19T00:52:39.209Z,95305.00
2023-04-19T00:53:39.256Z,95303.00
2023-04-19T00:54:39.324Z,95303.00
2023-04-19T00:55:39.367Z,95299.00
2023-04-19T00:56:39.433Z,95303.00
2023-04-19T00:57:39.511Z,95303.00
2023-04-19T00:58:39.584Z,95301.00
2023-04-19T00:59:39.607Z,95301.00
2023-04-19T01:00:39.674Z,95301.00
2023-04-19T01:01:39.782Z,95299.00
2023-04-19T01:02:39.957Z,95299.00
2023-04-19T01:03:40.193Z,95299.00
2023-04-19T01:04:39.952Z,95297.00
2023-04-19T01:05:39.956Z,95299.00
2023-04-19T01:06:40.016Z,95297.00
2023-04-19T01:07:40.080Z,95299.00
2023-04-19T01:08:40.126Z,95299.00
2023-04-19T01:09:40.204Z,95299.00
2023-04-19T01:10:40.238Z,95299.00
2023-04-19T01:11:41.387Z,95297.00
2023-04-19T01:12:40.321Z,95297.00
2023-04-19T01:13:40.346Z,95297.00
2023-04-19T01:14:40.322Z,95293.00
2023-04-19T01:15:40.374Z,95293.00
2023-04-19T01:16:40.357Z,95293.00
2023-04-19T01:17:40.417Z,95291.00
2023-04-19T01:18:40.354Z,95293.00
2023-04-19T01:19:40.381Z,95293.00
2023-04-19T01:20:40.356Z,95291.00
2023-04-19T01:21:40.395Z,95291.00
2023-04-19T01:22:40.385Z,95291.00
2023-04-19T01:23:40.415Z,95289.00
2023-04-19T01:24:40.414Z,95287.00
2023-04-19T01:25:40.428Z,95287.00
2023-04-19T01:26:40.431Z,95287.00
2023-04-19T01:27:40.409Z,95285.00
2023-04-19T01:28:40.473Z,95283.00
2023-04-19T01:29:40.479Z,95283.00
2023-04-19T01:30:40.484Z,95281.00
2023-04-19T01:31:40.494Z,95279.00
2023-04-19T01:32:40.522Z,95279.00
2023-04-19T01:33:40.497Z,95279.00
2023-04-19T01:34:40.533Z,95277.00
2023-04-19T01:35:40.541Z,95277.00
2023-04-19T01:36:40.519Z,95277.00
2023-04-19T01:37:40.535Z,95275.00
2023-04-19T01:38:40.568Z,95273.00
2023-04-19T01:39:40.593Z,95273.00
2023-04-19T01:40:40.591Z,95273.00
2023-04-19T01:41:40.555Z,95269.00
2023-04-19T01:42:40.563Z,95273.00
2023-04-19T01:43:40.585Z,95269.00
2023-04-19T01:44:40.577Z,95269.00
2023-04-19T01:45:40.602Z,95269.00
2023-04-19T01:46:40.592Z,95269.00
2023-04-19T01:47:40.628Z,95267.00
2023-04-19T01:48:40.602Z,95265.00
2023-04-19T01:49:40.624Z,95267.00
2023-04-19T01:50:40.621Z,95265.00
2023-04-19T01:51:40.650Z,95265.00
2023-04-19T01:52:40.624Z,95267.00
2023-04-19T01:53:40.615Z,95265.00
2023-04-19T01:54:40.649Z,95265.00
2023-04-19T01:55:40.627Z,95265.00
2023-04-19T01:56:40.667Z,95263.00
2023-04-19T01:57:40.631Z,95261.00
2023-04-19T01:58:40.654Z,95263.00
2023-04-19T01:59:40.628Z,95265.00
2023-04-19T02:00:40.708Z,95263.00
2023-04-19T02:01:40.696Z,95263.00
2023-04-19T02:02:40.855Z,95263.00
2023-04-19T02:03:41.078Z,95263.00
2023-04-19T02:04:40.880Z,95261.00
2023-04-19T02:05:40.928Z,95261.00
2023-04-19T02:06:41.010Z,95261.00
2023-04-19T02:07:41.046Z,95259.00
2023-04-19T02:08:41.107Z,95259.00
2023-04-19T02:09:41.195Z,95261.00
2023-04-19T02:10:41.256Z,95261.00
2023-04-19T02:11:41.301Z,95258.00
2023-04-19T02:12:41.455Z,95259.00
2023-04-19T02:13:41.433Z,95261.00
2023-04-19T02:14:41.498Z,95261.00
2023-04-19T02:15:41.555Z,95258.00
2023-04-19T02:16:41.688Z,95259.00
2023-04-19T02:17:41.684Z,95258.00
2023-04-19T02:18:41.766Z,95254.00
2023-04-19T02:19:41.798Z,95254.00
2023-04-19T02:20:41.911Z,95254.00
2023-04-19T02:21:41.916Z,95252.00
2023-04-19T02:22:42.010Z,95250.00
2023-04-19T02:23:42.036Z,95252.00
2023-04-19T02:24:42.118Z,95250.00
2023-04-19T02:25:42.161Z,95248.00
2023-04-19T02:26:42.224Z,95246.00
2023-04-19T02:27:42.301Z,95246.00
2023-04-19T02:28:42.364Z,95244.00
2023-04-19T02:29:42.429Z,95238.00
2023-04-19T02:30:42.479Z,95240.00
2023-04-19T02:31:42.532Z,95240.00
2023-04-19T02:32:42.613Z,95240.00
2023-04-19T02:33:42.655Z,95240.00
2023-04-19T02:34:42.719Z,95240.00
2023-04-19T02:35:42.781Z,95240.00
2023-04-19T02:36:42.839Z,95236.00
2023-04-19T02:37:42.882Z,95240.00
2023-04-19T02:38:42.978Z,95232.00
2023-04-19T02:39:43.026Z,95238.00
2023-04-19T02:40:43.072Z,95234.00
2023-04-19T02:41:43.167Z,95232.00
2023-04-19T02:42:43.204Z,95232.00
2023-04-19T02:43:43.263Z,95230.00
2023-04-19T02:44:43.314Z,95236.00
2023-04-19T02:45:43.451Z,95230.00
2023-04-19T02:46:43.448Z,95230.00
2023-04-19T02:47:43.570Z,95228.00
2023-04-19T02:48:43.588Z,95228.00
2023-04-19T02:49:43.637Z,95228.00
2023-04-19T02:50:43.697Z,95226.00
2023-04-19T02:51:43.785Z,95228.00
2023-04-19T02:52:43.825Z,95226.00
2023-04-19T02:53:43.882Z,95226.00
2023-04-19T02:54:43.962Z,95226.00
2023-04-19T02:55:44.012Z,95226.00
2023-04-19T02:56:44.065Z,95226.00
2023-04-19T02:57:44.171Z,95230.00
2023-04-19T02:58:44.200Z,95228.00
2023-04-19T02:59:44.251Z,95228.00
2023-04-19T03:00:44.333Z,95226.00
2023-04-19T03:01:44.451Z,95226.00
2023-04-19T03:02:44.545Z,95226.00
2023-04-19T03:03:44.605Z,95224.00
2023-04-19T03:04:45.460Z,95226.00
2023-04-19T03:05:44.664Z,95226.00
2023-04-19T03:06:44.742Z,95226.00
2023-04-19T03:07:44.854Z,95226.00
2023-04-19T03:08:44.871Z,95226.00
2023-04-19T03:09:44.936Z,95226.00
2023-04-19T03:10:44.983Z,95224.00
2023-04-19T03:11:45.055Z,95222.00
2023-04-19T03:12:45.109Z,95222.00
2023-04-19T03:13:45.182Z,95224.00
2023-04-19T03:14:45.263Z,95222.00
2023-04-19T03:15:45.332Z,95222.00
2023-04-19T03:16:45.399Z,95220.00
2023-04-19T03:17:45.466Z,95222.00
2023-04-19T03:18:47.945Z,95218.00
2023-04-19T03:19:45.541Z,95220.00
2023-04-19T03:20:45.541Z,95218.00
2023-04-19T03:21:45.548Z,95218.00
2023-04-19T03:22:45.556Z,95216.00
2023-04-19T03:23:45.568Z,95214.00
2023-04-19T03:24:45.562Z,95214.00
2023-04-19T03:25:45.561Z,95212.00
2023-04-19T03:26:45.659Z,95211.00
2023-04-19T03:27:45.565Z,95211.00
2023-04-19T03:28:45.570Z,95211.00
2023-04-19T03:29:47.275Z,95209.00
2023-04-19T03:30:45.572Z,95209.00
2023-04-19T03:31:45.612Z,95207.00
2023-04-19T03:32:45.642Z,95205.00
2023-04-19T03:33:45.597Z,95203.00
2023-04-19T03:34:45.628Z,95203.00
2023-04-19T03:35:45.634Z,95201.00
2023-04-19T03:36:45.603Z,95201.00
2023-04-19T03:37:45.597Z,95203.00
2023-04-19T03:38:45.614Z,95203.00
2023-04-19T03:39:45.617Z,95201.00
2023-04-19T03:40:45.614Z,95201.00
2023-04-19T03:41:45.651Z,95199.00
2023-04-19T03:42:45.678Z,95199.00
2023-04-19T03:43:45.634Z,95199.00
2023-04-19T03:44:45.689Z,95197.00
2023-04-19T03:45:45.663Z,95201.00
2023-04-19T03:46:45.783Z,95197.00
2023-04-19T03:47:45.750Z,95197.00
2023-04-19T03:48:45.710Z,95197.00
2023-04-19T03:49:45.707Z,95197.00
2023-04-19T03:50:45.740Z,95195.00
2023-04-19T03:51:45.767Z,95195.00
2023-04-19T03:52:45.793Z,95195.00
2023-04-19T03:53:45.797Z,95197.00
2023-04-19T03:54:45.817Z,95195.00
2023-04-19T03:55:45.796Z,95195.00
2023-04-19T03:56:45.827Z,95195.00
2023-04-19T03:57:45.834Z,95193.00
2023-04-19T03:58:45.828Z,95193.00
2023-04-19T03:59:45.864Z,95195.00
2023-04-19T04:00:45.862Z,95195.00
2023-04-19T04:01:45.906Z,95197.00
2023-04-19T04:02:46.114Z,95195.00
2023-04-19T04:03:46.147Z,95197.00
2023-04-19T04:04:46.091Z,95197.00
2023-04-19T04:05:45.955Z,95197.00
2023-04-19T04:06:46.012Z,95199.00
2023-04-19T04:07:46.040Z,95199.00
2023-04-19T04:08:45.989Z,95199.00
2023-04-19T04:09:46.024Z,95199.00
2023-04-19T04:10:46.106Z,95199.00
2023-04-19T04:11:46.127Z,95201.00
2023-04-19T04:12:46.233Z,95201.00
2023-04-19T04:13:46.295Z,95199.00
2023-04-19T04:14:46.398Z,95201.00
2023-04-19T04:15:46.444Z,95199.00
2023-04-19T04:16:46.646Z,95201.00
2023-04-19T04:17:46.638Z,95203.00
2023-04-19T04:18:46.661Z,95201.00
2023-04-19T04:19:46.737Z,95203.00
2023-04-19T04:20:46.789Z,95201.00
2023-04-19T04:21:46.852Z,95203.00
2023-04-19T04:22:46.930Z,95205.00
2023-04-19T04:23:47.014Z,95203.00
2023-04-19T04:24:47.080Z,95205.00
2023-04-19T04:25:47.120Z,95207.00
2023-04-19T04:26:47.218Z,95205.00
2023-04-19T04:27:47.312Z,95205.00
2023-04-19T04:28:47.306Z,95207.00
2023-04-19T04:29:47.439Z,95205.00
2023-04-19T04:30:47.466Z,95207.00
2023-04-19T04:31:47.715Z,95205.00
2023-04-19T04:32:47.704Z,95209.00
2023-04-19T04:33:47.687Z,95207.00
2023-04-19T04:34:47.736Z,95207.00
2023-04-19T04:35:47.830Z,95207.00
2023-04-19T04:36:47.878Z,95209.00
2023-04-19T04:37:47.955Z,95207.00
2023-04-19T04:38:48.095Z,95205.00
2023-04-19T04:39:48.096Z,95203.00
2023-04-19T04:40:48.137Z,95203.00
2023-04-19T04:41:48.227Z,95203.00
2023-04-19T04:42:48.267Z,95203.00
2023-04-19T04:43:53.957Z,95201.00
2023-04-19T04:44:49.397Z,95201.00
2023-04-19T04:45:48.433Z,95201.00
2023-04-19T04:46:48.395Z,95203.00
2023-04-19T04:47:48.423Z,95201.00
2023-04-19T04:48:48.451Z,95203.00
2023-04-19T04:49:48.436Z,95201.00
2023-04-19T04:50:48.434Z,95201.00
2023-04-19T04:51:48.417Z,95199.00
2023-04-19T04:52:48.438Z,95199.00
2023-04-19T04:53:48.478Z,95199.00
2023-04-19T04:54:48.456Z,95197.00
2023-04-19T04:55:48.559Z,95197.00
2023-04-19T04:56:48.748Z,95199.00
2023-04-19T04:57:48.674Z,95195.00
2023-04-19T04:58:48.772Z,95199.00
2023-04-19T04:59:48.835Z,95195.00
2023-04-19T05:00:55.953Z,95199.00
2023-04-19T05:01:48.979Z,95195.00
2023-04-19T05:02:49.100Z,95195.00
2023-04-19T05:03:48.978Z,95195.00
2023-04-19T05:04:49.156Z,95195.00
2023-04-19T05:05:48.992Z,95193.00
2023-04-19T05:06:49.004Z,95195.00
2023-04-19T05:07:49.037Z,95195.00
2023-04-19T05:08:49.061Z,95193.00
2023-04-19T05:09:49.037Z,95193.00
2023-04-19T05:10:49.073Z,95193.00
2023-04-19T05:11:49.035Z,95195.00
2023-04-19T05:12:49.067Z,95193.00
2023-04-19T05:13:49.120Z,95191.00
2023-04-19T05:14:49.072Z,95191.00
2023-04-19T05:15:49.073Z,95191.00
2023-04-19T05:16:49.267Z,95191.00
2023-04-19T05:17:49.194Z,95189.00
2023-04-19T05:18:49.110Z,95191.00
2023-04-19T05:19:49.122Z,95189.00
2023-04-19T05:20:49.172Z,95191.00
2023-04-19T05:21:49.176Z,95189.00
2023-04-19T05:22:49.140Z,95189.00
2023-04-19T05:23:49.138Z,95187.00
2023-04-19T05:24:49.156Z,95187.00
2023-04-19T05:25:49.174Z,95187.00
2023-04-19T05:26:49.295Z,95189.00
2023-04-19T05:27:49.267Z,95185.00
2023-04-19T05:28:49.566Z,95185.00
2023-04-19T05:29:49.405Z,95185.00
2023-04-19T05:30:49.478Z,95187.00
2023-04-19T05:31:49.709Z,95185.00
2023-04-19T05:32:49.669Z,95185.00
2023-04-19T05:33:50.034Z,95183.00
2023-04-19T05:34:49.850Z,95183.00
2023-04-19T05:35:49.850Z,95183.00
2023-04-19T05:36:49.891Z,95183.00
2023-04-19T05:37:49.996Z,95181.00
2023-04-19T05:38:50.049Z,95179.00
2023-04-19T05:39:50.162Z,95181.00
2023-04-19T05:40:50.190Z,95181.00
2023-04-19T05:41:50.229Z,95181.00
2023-04-19T05:42:50.312Z,95185.00
2023-04-19T05:43:50.624Z,95183.00
2023-04-19T05:44:50.396Z,95183.00
2023-04-19T05:45:58.606Z,95181.00
2023-04-19T05:46:50.520Z,95183.00
2023-04-19T05:47:50.631Z,95181.00
2023-04-19T05:48:50.584Z,95181.00
2023-04-19T05:49:50.562Z,95181.00
2023-04-19T05:50:50.582Z,95185.00
2023-04-19T05:51:50.564Z,95181.00
2023-04-19T05:52:50.573Z,95183.00
2023-04-19T05:53:50.609Z,95185.00
2023-04-19T05:54:50.612Z,95183.00
2023-04-19T05:55:50.696Z,95183.00
2023-04-19T05:56:50.678Z,95181.00
2023-04-19T05:57:50.669Z,95185.00
2023-04-19T05:58:50.737Z,95185.00
2023-04-19T05:59:50.769Z,95181.00
2023-04-19T06:00:50.745Z,95183.00
2023-04-19T06:01:50.793Z,95179.00
2023-04-19T06:02:50.899Z,95177.00
2023-04-19T06:03:50.925Z,95175.00
2023-04-19T06:04:50.896Z,95179.00
2023-04-19T06:05:50.907Z,95183.00
2023-04-19T06:06:50.834Z,95177.00
2023-04-19T06:07:55.823Z,95181.00
2023-04-19T06:08:53.992Z,95181.00
2023-04-19T06:09:50.768Z,95181.00
2023-04-19T06:10:55.846Z,95179.00
2023-04-19T06:11:52.152Z,95177.00
2023-04-19T06:12:50.839Z,95177.00
2023-04-19T06:13:50.779Z,95179.00
2023-04-19T06:14:50.820Z,95183.00
2023-04-19T06:15:50.774Z,95183.00
2023-04-19T06:16:50.781Z,95183.00
2023-04-19T06:17:51.730Z,95185.00
2023-04-19T06:18:50.736Z,95181.00
2023-04-19T06:19:50.721Z,95181.00
2023-04-19T06:20:50.734Z,95181.00
2023-04-19T06:21:50.716Z,95179.00
2023-04-19T06:22:50.715Z,95181.00
2023-04-19T06:23:50.712Z,95183.00
2023-04-19T06:24:50.687Z,95181.00
2023-04-19T06:25:50.708Z,95183.00
2023-04-19T06:26:50.699Z,95183.00
2023-04-19T06:27:50.749Z,95179.00
2023-04-19T06:28:50.778Z,95183.00
2023-04-19T06:29:51.455Z,95181.00
2023-04-19T06:30:50.857Z,95181.00
2023-04-19T06:31:50.941Z,95181.00
2023-04-19T06:32:51.007Z,95179.00
2023-04-19T06:33:51.026Z,95181.00
2023-04-19T06:34:50.958Z,95179.00
2023-04-19T06:35:50.991Z,95181.00
2023-04-19T06:36:51.003Z,95181.00
2023-04-19T06:37:52.011Z,95183.00
2023-04-19T06:38:51.093Z,95181.00
2023-04-19T06:39:51.196Z,95177.00
2023-04-19T06:40:51.200Z,95181.00
2023-04-19T06:41:51.245Z,95181.00
2023-04-19T06:42:51.298Z,95179.00
2023-04-19T06:43:51.331Z,95181.00
2023-04-19T06:44:51.289Z,95181.00
2023-04-19T06:45:51.305Z,95179.00
2023-04-19T06:46:51.327Z,95179.00
2023-04-19T06:47:51.401Z,95181.00
2023-04-19T06:48:51.346Z,95177.00
2023-04-19T06:49:51.394Z,95179.00
2023-04-19T06:50:51.408Z,95181.00
2023-04-19T06:51:51.473Z,95183.00
2023-04-19T06:52:51.426Z,95179.00
2023-04-19T06:53:51.624Z,95179.00
2023-04-19T06:54:51.475Z,95179.00
2023-04-19T06:55:51.474Z,95179.00
2023-04-19T06:56:51.480Z,95181.00
2023-04-19T06:57:51.472Z,95183.00
2023-04-19T06:58:51.494Z,95179.00
2023-04-19T06:59:51.459Z,95181.00
2023-04-19T07:00:51.513Z,95181.00
2023-04-19T07:01:51.675Z,95181.00
2023-04-19T07:02:52.283Z,95181.00
2023-04-19T07:03:51.801Z,95179.00
2023-04-19T07:04:51.806Z,95183.00
2023-04-19T07:05:51.738Z,95181.00
2023-04-19T07:06:51.777Z,95183.00
2023-04-19T07:07:51.851Z,95179.00
2023-04-19T07:08:52.150Z,95179.00
2023-04-19T07:09:51.921Z,95181.00
2023-04-19T07:10:51.926Z,95181.00
2023-04-19T07:11:52.052Z,95181.00
2023-04-19T07:12:52.075Z,95183.00
2023-04-19T07:13:52.112Z,95181.00
2023-04-19T07:14:52.169Z,95181.00
2023-04-19T07:15:52.377Z,95177.00
2023-04-19T07:16:52.821Z,95179.00
2023-04-19T07:17:52.419Z,95177.00
2023-04-19T07:18:52.953Z,95177.00
2023-04-19T07:19:52.495Z,95173.00
2023-04-19T07:20:52.584Z,95175.00
2023-04-19T07:21:52.646Z,95171.00
2023-04-19T07:22:52.679Z,95169.00
2023-04-19T07:23:52.737Z,95167.00
2023-04-19T07:24:53.185Z,95167.00
2023-04-19T07:25:52.879Z,95169.00
2023-04-19T07:26:53.121Z,95167.00
2023-04-19T07:27:52.972Z,95169.00
2023-04-19T07:28:53.433Z,95167.00
2023-04-19T07:29:53.112Z,95169.00
2023-04-19T07:30:53.255Z,95167.00
2023-04-19T07:31:53.261Z,95167.00
2023-04-19T07:32:53.262Z,95167.00
2023-04-19T07:33:53.712Z,95165.00
2023-04-19T07:34:53.285Z,95165.00
2023-04-19T07:35:53.289Z,95163.00
2023-04-19T07:36:53.338Z,95165.00
2023-04-19T07:37:53.354Z,95163.00
2023-04-19T07:38:53.651Z,95161.00
2023-04-19T07:39:53.399Z,95163.00
2023-04-19T07:40:53.429Z,95159.00
2023-04-19T07:41:53.518Z,95161.00
2023-04-19T07:42:53.519Z,95157.00
2023-04-19T07:43:53.663Z,95150.00
2023-04-19T07:44:53.682Z,95148.00
2023-04-19T07:45:53.766Z,95148.00
2023-04-19T07:46:53.949Z,95150.00
2023-04-19T07:47:53.904Z,95148.00
2023-04-19T07:48:53.889Z,95148.00
2023-04-19T07:49:53.951Z,95148.00
2023-04-19T07:50:54.007Z,95144.00
2023-04-19T07:51:54.052Z,95148.00
2023-04-19T07:52:54.106Z,95142.00
2023-04-19T07:53:54.128Z,95142.00
2023-04-19T07:54:54.201Z,95142.00
2023-04-19T07:55:54.210Z,95144.00
2023-04-19T07:56:54.249Z,95142.00
2023-04-19T07:57:54.355Z,95144.00
2023-04-19T07:59:06.744Z,95144.00
2023-04-19T07:59:55.519Z,95138.00
2023-04-19T08:00:55.073Z,95138.00
2023-04-19T08:01:55.117Z,95140.00
2023-04-19T08:02:54.479Z,95140.00
2023-04-19T08:03:54.504Z,95138.00
2023-04-19T08:04:54.389Z,95142.00
2023-04-19T08:05:54.304Z,95140.00
2023-04-19T08:06:54.353Z,95140.00
2023-04-19T08:07:54.320Z,95136.00
2023-04-19T08:08:54.394Z,95142.00
2023-04-19T08:09:54.575Z,95140.00
2023-04-19T08:10:54.433Z,95140.00
2023-04-19T08:11:54.496Z,95134.00
2023-04-19T08:13:05.119Z,95134.00
2023-04-19T08:14:06.906Z,95132.00
2023-04-19T08:15:02.677Z,95134.00
2023-04-19T08:17:54.513Z,95134.00
2023-04-19T08:18:54.453Z,95132.00
2023-04-19T08:19:54.477Z,95130.00
2023-04-19T08:20:54.442Z,95130.00
2023-04-19T08:21:54.420Z,95126.00
2023-04-19T08:22:54.383Z,95128.00
2023-04-19T08:23:54.561Z,95124.00
2023-04-19T08:24:54.373Z,95126.00
2023-04-19T08:25:54.338Z,95126.00
2023-04-19T08:26:54.595Z,95122.00
2023-04-19T08:27:54.329Z,95124.00
2023-04-19T08:28:54.336Z,95124.00
2023-04-19T08:29:54.299Z,95122.00
2023-04-19T08:30:54.289Z,95124.00
2023-04-19T08:31:54.514Z,95120.00
2023-04-19T08:32:56.924Z,95122.00
2023-04-19T08:33:54.265Z,95120.00
2023-04-19T08:34:54.667Z,95120.00
2023-04-19T08:35:54.251Z,95122.00
2023-04-19T08:37:03.302Z,95124.00
2023-04-19T08:37:55.217Z,95122.00
2023-04-19T08:39:04.101Z,95124.00
2023-04-19T08:39:55.158Z,95120.00
2023-04-19T08:40:54.140Z,95120.00
2023-04-19T08:42:02.862Z,95120.00
2023-04-19T08:42:55.097Z,95118.00
2023-04-19T08:43:54.064Z,95120.00
2023-04-19T08:45:13.610Z,95118.00
2023-04-19T08:45:55.063Z,95120.00
2023-04-19T08:46:54.064Z,95118.00
2023-04-19T08:48:00.733Z,95116.00
2023-04-19T08:48:55.086Z,95114.00
2023-04-19T08:50:08.690Z,95116.00
2023-04-19T08:51:05.145Z,95112.00
2023-04-19T08:51:55.034Z,95112.00
2023-04-19T08:52:58.596Z,95111.00
2023-04-19T08:53:54.986Z,95111.00
2023-04-19T08:54:54.185Z,95111.00
2023-04-19T08:56:53.962Z,95112.00
2023-04-19T08:57:53.936Z,95105.00
2023-04-19T08:59:07.364Z,95105.00
2023-04-19T08:59:55.172Z,95103.00
2023-04-19T09:00:53.901Z,95105.00
2023-04-19T09:01:53.958Z,95103.00
2023-04-19T09:02:54.081Z,95101.00
2023-04-19T09:04:04.893Z,95099.00
2023-04-19T09:04:55.399Z,95099.00
2023-04-19T09:05:54.033Z,95093.00
2023-04-19T09:06:53.847Z,95093.00
2023-04-19T09:07:53.899Z,95095.00
2023-04-19T09:08:53.834Z,95089.00
2023-04-19T09:10:02.723Z,95089.00
2023-04-19T09:10:54.824Z,95087.00
2023-04-19T09:11:53.811Z,95087.00
2023-04-19T09:12:53.818Z,95083.00
2023-04-19T09:13:53.824Z,95087.00
2023-04-19T09:15:01.982Z,95081.00
2023-04-19T09:15:54.965Z,95083.00
2023-04-19T09:16:53.865Z,95077.00
2023-04-19T09:17:53.831Z,95077.00
2023-04-19T09:19:02.594Z,95075.00
2023-04-19T09:19:54.764Z,95077.00
2023-04-19T09:20:53.761Z,95073.00
2023-04-19T09:21:54.197Z,95075.00
2023-04-19T09:22:53.783Z,95073.00
2023-04-19T09:23:53.735Z,95069.00
2023-04-19T09:26:54.786Z,95061.00
2023-04-19T09:27:53.750Z,95059.00
2023-04-19T09:28:53.769Z,95059.00
2023-04-19T09:29:53.794Z,95057.00
2023-04-19T09:31:53.972Z,95056.00
2023-04-19T09:32:53.825Z,95054.00
2023-04-19T09:33:53.806Z,95054.00
2023-04-19T09:34:53.809Z,95052.00
2023-04-19T09:35:53.807Z,95050.00
2023-04-19T09:37:01.039Z,95048.00
2023-04-19T09:38:04.805Z,95046.00
2023-04-19T09:38:54.752Z,95044.00
2023-04-19T09:39:53.753Z,95044.00
2023-04-19T09:40:54.235Z,95042.00
2023-04-19T09:41:53.815Z,95038.00
2023-04-19T09:43:06.970Z,95040.00
2023-04-19T09:45:27.756Z,95034.00
2023-04-19T09:45:54.780Z,95030.00
2023-04-19T09:46:54.142Z,95028.00
2023-04-19T09:47:53.780Z,95028.00
2023-04-19T09:48:53.780Z,95026.00
2023-04-19T09:49:54.207Z,95026.00
2023-04-19T09:50:59.637Z,95028.00
2023-04-19T09:51:54.911Z,95022.00
2023-04-19T09:52:53.742Z,95024.00
2023-04-19T09:53:53.732Z,95022.00
2023-04-19T09:54:53.789Z,95020.00
2023-04-19T09:56:01.505Z,95022.00
2023-04-19T09:56:57.460Z,95020.00
2023-04-19T09:57:53.755Z,95018.00
2023-04-19T09:58:58.857Z,95020.00
2023-04-19T09:59:54.743Z,95018.00
2023-04-19T10:01:02.744Z,95016.00
2023-04-19T10:01:54.799Z,95016.00
2023-04-19T10:02:53.867Z,95014.00
2023-04-19T10:03:53.936Z,95014.00
2023-04-19T10:05:11.150Z,95011.00
2023-04-19T10:05:55.296Z,95011.00
2023-04-19T10:07:19.284Z,95009.00
2023-04-19T10:07:57.672Z,95005.00
2023-04-19T10:08:54.778Z,95005.00
2023-04-19T10:09:56.466Z,95005.00
2023-04-19T10:10:53.763Z,95001.00
2023-04-19T10:11:58.140Z,95003.00
2023-04-19T10:13:53.793Z,95001.00
2023-04-19T10:14:53.785Z,95001.00
2023-04-19T10:15:57.300Z,95001.00
2023-04-19T10:16:54.829Z,95001.00
2023-04-19T10:17:53.808Z,94997.00
2023-04-19T10:18:53.782Z,94995.00
2023-04-19T10:19:53.796Z,94995.00
2023-04-19T10:20:53.835Z,94995.00
2023-04-19T10:21:53.805Z,94993.00
2023-04-19T10:22:53.829Z,94989.00
2023-04-19T10:23:53.845Z,94987.00
2023-04-19T10:24:53.862Z,94987.00
2023-04-19T10:25:54.036Z,94985.00
2023-04-19T10:26:54.211Z,94985.00
2023-04-19T10:27:53.862Z,94983.00
2023-04-19T10:28:53.900Z,94981.00
2023-04-19T10:29:53.876Z,94977.00
2023-04-19T10:30:53.879Z,94979.00
2023-04-19T10:31:54.296Z,94975.00
2023-04-19T10:32:53.926Z,94973.00
2023-04-19T10:33:53.909Z,94969.00
2023-04-19T10:34:53.895Z,94969.00
2023-04-19T10:35:53.997Z,94967.00
2023-04-19T10:36:54.741Z,94965.00
2023-04-19T10:37:54.054Z,94962.00
2023-04-19T10:38:54.105Z,94960.00
2023-04-19T10:39:54.099Z,94962.00
2023-04-19T10:40:54.140Z,94958.00
2023-04-19T10:41:54.191Z,94956.00
2023-04-19T10:42:54.230Z,94956.00
2023-04-19T10:43:54.262Z,94956.00
2023-04-19T10:44:54.271Z,94954.00
2023-04-19T10:45:54.334Z,94952.00
2023-04-19T10:46:54.735Z,94948.00
2023-04-19T10:47:54.409Z,94948.00
2023-04-19T10:48:54.516Z,94948.00
2023-04-19T10:49:54.481Z,94944.00
2023-04-19T10:50:54.503Z,94940.00
2023-04-19T10:51:54.489Z,94940.00
2023-04-19T10:52:54.547Z,94942.00
2023-04-19T10:53:54.556Z,94934.00
2023-04-19T10:54:54.625Z,94932.00
2023-04-19T10:55:54.612Z,94932.00
2023-04-19T10:56:54.646Z,94930.00
2023-04-19T10:57:54.647Z,94924.00
2023-04-19T10:58:54.658Z,94926.00
2023-04-19T10:59:54.700Z,94924.00
2023-04-19T11:00:54.687Z,94924.00
2023-04-19T11:01:54.755Z,94922.00
2023-04-19T11:02:54.854Z,94920.00
2023-04-19T11:03:54.961Z,94916.00
2023-04-19T11:04:54.799Z,94916.00
2023-04-19T11:05:54.813Z,94913.00
2023-04-19T11:06:54.846Z,94909.00
2023-04-19T11:07:54.848Z,94909.00
2023-04-19T11:08:54.921Z,94909.00
2023-04-19T11:09:55.702Z,94907.00
2023-04-19T11:10:56.174Z,94909.00
2023-04-19T11:11:55.144Z,94907.00
2023-04-19T11:12:55.155Z,94901.00
2023-04-19T11:13:55.155Z,94893.00
2023-04-19T11:14:55.710Z,94891.00
2023-04-19T11:15:55.288Z,94889.00
2023-04-19T11:16:55.881Z,94891.00
2023-04-19T11:18:11.302Z,94887.00
2023-04-19T11:18:56.329Z,94885.00
2023-04-19T11:19:55.298Z,94885.00
2023-04-19T11:20:55.323Z,94883.00
2023-04-19T11:21:55.320Z,94881.00
2023-04-19T11:22:55.325Z,94879.00
2023-04-19T11:23:55.333Z,94881.00
2023-04-19T11:24:55.356Z,94877.00
2023-04-19T11:25:55.356Z,94875.00
2023-04-19T11:26:55.823Z,94879.00
2023-04-19T11:27:55.357Z,94873.00
2023-04-19T11:28:55.331Z,94869.00
2023-04-19T11:29:55.342Z,94869.00
2023-04-19T11:30:55.373Z,94865.00
2023-04-19T11:31:55.303Z,94863.00
2023-04-19T11:32:55.791Z,94862.00
2023-04-19T11:33:55.351Z,94863.00
2023-04-19T11:34:55.361Z,94858.00
2023-04-19T11:35:55.342Z,94858.00
2023-04-19T11:36:55.294Z,94858.00
2023-04-19T11:37:55.731Z,94856.00
2023-04-19T11:38:55.325Z,94854.00
2023-04-19T11:39:55.311Z,94854.00
2023-04-19T11:40:55.317Z,94848.00
2023-04-19T11:41:55.317Z,94850.00
2023-04-19T11:42:55.308Z,94848.00
2023-04-19T11:43:55.366Z,94844.00
2023-04-19T11:44:55.293Z,94842.00
2023-04-19T11:45:55.315Z,94840.00
2023-04-19T11:46:55.283Z,94838.00
2023-04-19T11:47:55.280Z,94840.00
2023-04-19T11:48:55.267Z,94834.00
2023-04-19T11:49:55.290Z,94836.00
2023-04-19T11:50:55.299Z,94832.00
2023-04-19T11:51:55.249Z,94830.00
2023-04-19T11:52:55.252Z,94828.00